createdAt,value
2022-11-19T00:01:28.459Z,6.27
2022-11-19T00:03:56.076Z,4.03
2022-11-19T00:06:25.342Z,4.57
2022-11-19T00:08:53.015Z,5.37
2022-11-19T00:11:40.768Z,4.60
2022-11-19T00:14:09.080Z,6.00
2022-11-19T00:16:35.935Z,5.40
2022-11-19T00:19:02.832Z,5.40
2022-11-19T00:21:29.711Z,4.23
2022-11-19T00:23:57.083Z,4.87
2022-11-19T00:26:24.584Z,5.60
2022-11-19T00:28:51.640Z,5.47
2022-11-19T00:31:18.997Z,6.23
2022-11-19T00:33:46.822Z,5.43
2022-11-19T00:36:15.360Z,4.57
2022-11-19T00:38:43.306Z,14.03
2022-11-19T00:41:10.134Z,13.07
2022-11-19T00:43:49.159Z,7.60
2022-11-19T00:46:20.431Z,6.87
2022-11-19T00:48:49.351Z,5.20
2022-11-19T00:51:18.068Z,6.33
2022-11-19T00:53:44.952Z,5.70
2022-11-19T00:56:14.242Z,5.30
2022-11-19T00:58:42.097Z,6.73
2022-11-19T01:01:09.902Z,6.47
2022-11-19T01:03:38.498Z,5.60
2022-11-19T01:06:08.551Z,8.47
2022-11-19T01:08:36.032Z,5.13
2022-11-19T01:11:33.796Z,4.53
2022-11-19T01:14:02.574Z,4.10
2022-11-19T01:16:37.774Z,4.87
2022-11-19T01:19:06.053Z,6.27
2022-11-19T01:21:34.340Z,6.77
2022-11-19T01:24:02.422Z,4.50
2022-11-19T01:26:29.481Z,4.57
2022-11-19T01:28:56.962Z,4.27
2022-11-19T01:31:26.334Z,9.10
2022-11-19T01:33:53.870Z,6.87
2022-11-19T01:36:23.317Z,4.90
2022-11-19T01:38:50.948Z,5.47
2022-11-19T01:41:32.534Z,5.00
2022-11-19T01:44:28.383Z,5.27
2022-11-19T01:46:55.199Z,5.00
2022-11-19T01:49:22.408Z,6.10
2022-11-19T01:51:55.307Z,6.20
2022-11-19T01:54:38.776Z,6.53
2022-11-19T01:57:13.304Z,5.53
2022-11-19T01:59:44.673Z,5.93
2022-11-19T02:02:11.677Z,10.33
2022-11-19T02:04:39.951Z,5.33
2022-11-19T02:07:09.323Z,5.03
2022-11-19T02:09:36.285Z,3.93
2022-11-19T02:12:20.903Z,4.03
2022-11-19T02:15:32.141Z,6.40
2022-11-19T02:18:22.824Z,7.17
2022-11-19T02:21:18.957Z,4.87
2022-11-19T02:24:00.887Z,5.40
2022-11-19T02:26:46.222Z,6.43
2022-11-19T02:29:31.842Z,4.73
2022-11-19T02:32:13.553Z,6.93
2022-11-19T02:34:47.508Z,4.63
2022-11-19T02:37:30.047Z,6.17
2022-11-19T02:40:05.000Z,4.70
2022-11-19T02:42:38.474Z,6.07
2022-11-19T02:45:39.809Z,4.47
2022-11-19T02:48:23.776Z,5.63
2022-11-19T02:50:54.078Z,4.57
2022-11-19T02:53:23.582Z,5.63
2022-11-19T02:56:08.961Z,8.57
2022-11-19T02:59:09.797Z,7.97
2022-11-19T03:02:00.619Z,4.67
2022-11-19T03:04:33.562Z,5.63
2022-11-19T03:07:13.109Z,5.37
2022-11-19T03:10:03.025Z,6.30
2022-11-19T03:13:22.189Z,4.93
2022-11-19T03:16:09.404Z,5.23
2022-11-19T03:18:54.978Z,5.10
2022-11-19T03:21:36.291Z,8.10
2022-11-19T03:24:12.752Z,5.73
2022-11-19T03:26:46.796Z,9.27
2022-11-19T03:29:15.018Z,6.77
2022-11-19T03:31:48.617Z,6.97
2022-11-19T03:34:20.212Z,6.57
2022-11-19T03:36:50.510Z,5.20
2022-11-19T03:39:19.740Z,5.60
2022-11-19T03:41:49.614Z,7.80
2022-11-19T03:44:28.732Z,4.90
2022-11-19T03:47:04.930Z,4.80
2022-11-19T03:49:40.236Z,7.10
2022-11-19T03:52:13.660Z,7.20
2022-11-19T03:54:41.116Z,5.60
2022-11-19T03:57:10.507Z,7.77
2022-11-19T03:59:37.307Z,7.27
2022-11-19T04:02:08.418Z,6.57
2022-11-19T04:04:38.257Z,7.33
2022-11-19T04:07:05.057Z,7.53
2022-11-19T04:09:34.260Z,7.23
2022-11-19T04:12:01.833Z,6.67
2022-11-19T04:14:28.807Z,7.03
2022-11-19T04:16:55.963Z,10.73
2022-11-19T04:19:22.956Z,12.63
2022-11-19T04:21:50.049Z,7.77
2022-11-19T04:24:17.102Z,7.00
2022-11-19T04:26:43.866Z,5.77
2022-11-19T04:29:10.659Z,7.17
2022-11-19T04:31:37.521Z,8.37
2022-11-19T04:34:04.424Z,9.40
2022-11-19T04:36:31.355Z,5.73
2022-11-19T04:38:58.173Z,8.90
2022-11-19T04:41:24.929Z,5.10
2022-11-19T04:43:51.757Z,6.03
2022-11-19T04:46:18.906Z,3.83
2022-11-19T04:48:45.764Z,4.90
2022-11-19T04:51:12.732Z,7.77
2022-11-19T04:53:39.554Z,7.50
2022-11-19T04:56:07.568Z,5.93
2022-11-19T04:58:34.814Z,6.33
2022-11-19T05:01:01.634Z,8.13
2022-11-19T05:03:28.510Z,9.23
2022-11-19T05:05:55.337Z,9.20
2022-11-19T05:08:22.284Z,8.87
2022-11-19T05:10:49.204Z,9.53
2022-11-19T05:13:16.002Z,10.43
2022-11-19T05:15:42.796Z,10.07
2022-11-19T05:18:09.842Z,10.70
2022-11-19T05:20:36.653Z,11.13
2022-11-19T05:23:03.595Z,9.13
2022-11-19T05:25:31.713Z,11.37
2022-11-19T05:27:58.520Z,10.27
2022-11-19T05:30:25.351Z,12.00
2022-11-19T05:32:52.148Z,10.10
2022-11-19T05:35:19.091Z,11.17
2022-11-19T05:37:49.286Z,9.97
2022-11-19T05:40:16.975Z,9.67
2022-11-19T05:42:43.975Z,11.03
2022-11-19T05:45:13.678Z,10.50
2022-11-19T05:47:43.478Z,10.83
2022-11-19T05:50:14.407Z,10.87
2022-11-19T05:52:41.182Z,13.67
2022-11-19T05:55:08.123Z,13.37
2022-11-19T05:57:34.973Z,12.47
2022-11-19T06:00:01.718Z,14.67
2022-11-19T06:02:30.670Z,14.43
2022-11-19T06:04:57.818Z,15.47
2022-11-19T06:07:24.611Z,13.87
2022-11-19T06:09:51.435Z,14.03
2022-11-19T06:12:18.288Z,15.43
2022-11-19T06:14:45.113Z,14.13
2022-11-19T06:17:11.999Z,14.03
2022-11-19T06:19:38.811Z,14.97
2022-11-19T06:22:05.674Z,16.20
2022-11-19T06:24:32.719Z,14.30
2022-11-19T06:27:00.758Z,15.50
2022-11-19T06:29:27.701Z,16.40
2022-11-19T06:31:57.612Z,16.77
2022-11-19T06:34:24.434Z,13.27
2022-11-19T06:36:51.227Z,14.03
2022-11-19T06:39:19.154Z,15.63
2022-11-19T06:41:48.648Z,13.30
2022-11-19T06:44:15.531Z,15.67
2022-11-19T06:46:45.017Z,13.97
2022-11-19T06:49:18.462Z,16.53
2022-11-19T06:51:46.565Z,25.20
2022-11-19T06:54:13.364Z,13.47
2022-11-19T06:56:40.129Z,20.07
2022-11-19T06:59:06.911Z,20.13
2022-11-19T07:01:33.729Z,14.80
2022-11-19T07:04:00.627Z,20.93
2022-11-19T07:06:27.445Z,17.53
2022-11-19T07:08:54.265Z,19.83
2022-11-19T07:11:26.736Z,22.10
2022-11-19T07:13:58.179Z,26.60
2022-11-19T07:16:26.972Z,16.13
2022-11-19T07:18:53.788Z,16.00
2022-11-19T07:21:20.655Z,15.57
2022-11-19T07:23:50.492Z,14.73
2022-11-19T07:26:17.366Z,18.77
2022-11-19T07:28:44.226Z,17.20
2022-11-19T07:31:11.060Z,19.03
2022-11-19T07:33:39.373Z,17.57
2022-11-19T07:36:15.322Z,15.53
2022-11-19T07:38:44.940Z,15.23
2022-11-19T07:41:30.220Z,16.63
2022-11-19T07:43:57.137Z,17.03
2022-11-19T07:46:24.064Z,17.80
2022-11-19T07:48:55.337Z,14.80
2022-11-19T07:51:23.258Z,15.73
2022-11-19T07:53:50.648Z,15.53
2022-11-19T07:56:17.960Z,19.43
2022-11-19T07:58:45.094Z,16.80
2022-11-19T08:01:14.885Z,19.40
2022-11-19T08:03:42.848Z,18.43
2022-11-19T08:06:10.068Z,17.10
2022-11-19T08:08:36.898Z,19.27
2022-11-19T08:11:05.589Z,16.93
2022-11-19T08:13:32.927Z,19.23
2022-11-19T08:16:00.972Z,17.50
2022-11-19T08:18:31.150Z,14.03
2022-11-19T08:21:10.107Z,14.60
2022-11-19T08:23:38.314Z,15.27
2022-11-19T08:26:07.666Z,15.80
2022-11-19T08:28:34.710Z,14.90
2022-11-19T08:31:09.152Z,14.23
2022-11-19T08:33:36.478Z,18.20
2022-11-19T08:36:03.830Z,14.83
2022-11-19T08:38:34.513Z,16.27
2022-11-19T08:41:24.962Z,15.37
2022-11-19T08:43:51.863Z,15.93
2022-11-19T08:46:18.736Z,16.93
2022-11-19T08:48:45.538Z,15.07
2022-11-19T08:51:14.820Z,14.90
2022-11-19T08:53:41.750Z,14.47
2022-11-19T08:56:10.183Z,16.43
2022-11-19T08:58:39.720Z,17.80
2022-11-19T09:01:15.151Z,14.10
2022-11-19T09:03:45.518Z,17.27
2022-11-19T09:06:13.283Z,16.13
2022-11-19T09:08:43.564Z,15.87
2022-11-19T09:11:14.083Z,16.27
2022-11-19T09:13:41.406Z,17.43
2022-11-19T09:16:10.127Z,19.63
2022-11-19T09:18:39.203Z,22.63
2022-11-19T09:21:07.188Z,22.67
2022-11-19T09:23:34.007Z,17.27
2022-11-19T09:26:09.489Z,18.57
2022-11-19T09:28:36.814Z,20.40
2022-11-19T09:31:07.225Z,17.53
2022-11-19T09:33:37.178Z,19.73
2022-11-19T09:36:04.716Z,19.83
2022-11-19T09:38:32.001Z,21.00
2022-11-19T09:41:26.673Z,24.87
2022-11-19T09:44:15.136Z,23.03
2022-11-19T09:46:52.292Z,18.00
2022-11-19T09:49:28.317Z,16.93
2022-11-19T09:52:07.511Z,15.80
2022-11-19T09:54:35.158Z,19.80
2022-11-19T09:57:10.000Z,16.43
2022-11-19T09:59:40.595Z,14.90
2022-11-19T10:02:18.052Z,16.37
2022-11-19T10:04:46.675Z,20.33
2022-11-19T10:07:19.112Z,20.27
2022-11-19T10:09:51.854Z,21.87
2022-11-19T10:12:23.323Z,18.10
2022-11-19T10:15:15.606Z,17.77
2022-11-19T10:17:54.060Z,16.33
2022-11-19T10:20:44.556Z,22.10
2022-11-19T10:23:26.366Z,21.47
2022-11-19T10:26:03.195Z,23.00
2022-11-19T10:28:35.240Z,21.23
2022-11-19T10:31:13.033Z,20.93
2022-11-19T10:34:14.354Z,17.40
2022-11-19T10:37:15.870Z,17.77
2022-11-19T10:39:53.661Z,17.70
2022-11-19T10:42:36.735Z,18.37
2022-11-19T10:45:22.679Z,20.47
2022-11-19T10:48:05.962Z,16.33
2022-11-19T10:50:35.630Z,20.03
2022-11-19T10:53:21.332Z,15.33
2022-11-19T10:55:57.268Z,15.83
2022-11-19T10:58:44.265Z,16.23
2022-11-19T11:01:33.136Z,13.93
2022-11-19T11:04:23.534Z,15.97
2022-11-19T11:06:53.512Z,14.17
2022-11-19T11:09:42.875Z,18.63
2022-11-19T11:12:45.900Z,13.50
2022-11-19T11:15:21.595Z,15.00
2022-11-19T11:18:05.023Z,12.90
2022-11-19T11:20:32.457Z,15.17
2022-11-19T11:23:17.073Z,14.20
2022-11-19T11:26:17.840Z,15.10
2022-11-19T11:28:54.963Z,15.03
2022-11-19T11:31:42.548Z,14.27
2022-11-19T11:34:27.689Z,13.80
2022-11-19T11:36:55.478Z,15.63
2022-11-19T11:39:31.507Z,13.00
2022-11-19T11:42:08.326Z,15.37
2022-11-19T11:44:39.336Z,12.13
2022-11-19T11:47:16.301Z,13.03
2022-11-19T11:49:45.518Z,15.20
2022-11-19T11:52:12.282Z,16.77
2022-11-19T11:55:04.171Z,14.77
2022-11-19T11:57:33.815Z,16.57
2022-11-19T12:00:03.462Z,15.60
2022-11-19T12:02:35.285Z,17.77
2022-11-19T12:05:05.705Z,14.73
2022-11-19T12:08:19.782Z,19.13
2022-11-19T12:10:59.522Z,15.13
2022-11-19T12:13:41.025Z,16.40
2022-11-19T12:16:11.143Z,15.77
2022-11-19T12:18:59.764Z,15.80
2022-11-19T12:21:47.758Z,16.60
2022-11-19T12:24:20.414Z,17.50
2022-11-19T12:26:50.460Z,16.83
2022-11-19T12:29:26.567Z,36.43
2022-11-19T12:32:07.363Z,22.07
2022-11-19T12:35:08.268Z,20.70
2022-11-19T12:38:00.725Z,20.90
2022-11-19T12:40:44.663Z,22.20
2022-11-19T12:43:23.884Z,20.30
2022-11-19T12:46:15.796Z,20.67
2022-11-19T12:48:51.699Z,22.47
2022-11-19T12:51:27.420Z,24.30
2022-11-19T12:54:35.176Z,22.43
2022-11-19T12:57:33.237Z,26.43
2022-11-19T13:00:19.335Z,27.33
2022-11-19T13:03:05.423Z,31.20
2022-11-19T13:05:58.272Z,29.33
2022-11-19T13:08:27.802Z,27.20
2022-11-19T13:11:08.972Z,26.37
2022-11-19T13:13:40.059Z,25.80
2022-11-19T13:16:11.345Z,26.80
2022-11-19T13:18:42.174Z,25.43
2022-11-19T13:21:23.123Z,25.90
2022-11-19T13:23:52.635Z,32.60
2022-11-19T13:26:32.174Z,29.37
2022-11-19T13:28:59.008Z,25.17
2022-11-19T13:31:56.596Z,28.43
2022-11-19T13:34:30.651Z,28.17
2022-11-19T13:37:15.980Z,30.50
2022-11-19T13:39:52.150Z,29.30
2022-11-19T13:42:39.754Z,34.50
2022-11-19T13:45:19.188Z,29.43
2022-11-19T13:47:59.920Z,32.20
2022-11-19T13:50:33.894Z,30.63
2022-11-19T13:53:16.532Z,43.63
2022-11-19T13:55:44.753Z,34.07
2022-11-19T13:58:11.487Z,35.00
2022-11-19T14:00:38.802Z,35.60
2022-11-19T14:03:42.961Z,34.27
2022-11-19T14:06:27.906Z,32.93
2022-11-19T14:08:54.688Z,33.37
2022-11-19T14:11:44.809Z,33.33
2022-11-19T14:14:39.204Z,35.43
2022-11-19T14:17:59.781Z,36.27
2022-11-19T14:21:03.212Z,34.57
2022-11-19T14:24:06.731Z,37.00
2022-11-19T14:27:00.733Z,40.17
2022-11-19T14:29:27.581Z,35.40
2022-11-19T14:32:00.377Z,38.03
2022-11-19T14:34:35.567Z,37.57
2022-11-19T14:37:23.099Z,36.93
2022-11-19T14:40:00.225Z,35.87
2022-11-19T14:42:27.273Z,37.73
2022-11-19T14:45:05.929Z,32.27
2022-11-19T14:47:39.720Z,41.60
2022-11-19T14:50:26.259Z,42.23
2022-11-19T14:52:56.302Z,40.27
2022-11-19T14:55:26.327Z,36.37
2022-11-19T14:58:07.211Z,38.37
2022-11-19T15:00:37.714Z,39.00
2022-11-19T15:03:20.983Z,47.67
2022-11-19T15:05:48.208Z,52.23
2022-11-19T15:08:18.147Z,52.70
2022-11-19T15:10:49.246Z,45.83
2022-11-19T15:13:22.509Z,42.50
2022-11-19T15:15:52.439Z,43.80
2022-11-19T15:18:45.078Z,41.97
2022-11-19T15:21:39.191Z,35.73
2022-11-19T15:24:45.073Z,36.37
2022-11-19T15:27:56.103Z,39.03
2022-11-19T15:30:50.675Z,39.57
2022-11-19T15:33:29.611Z,52.73
2022-11-19T15:36:11.179Z,50.37
2022-11-19T15:39:06.651Z,51.13
2022-11-19T15:42:00.457Z,51.70
2022-11-19T15:44:51.028Z,54.87
2022-11-19T15:47:59.708Z,54.27
2022-11-19T15:50:28.226Z,54.47
2022-11-19T15:52:59.732Z,59.83
2022-11-19T15:55:30.989Z,59.07
2022-11-19T15:58:14.797Z,57.53
2022-11-19T16:00:50.484Z,56.13
2022-11-19T16:03:18.884Z,54.10
2022-11-19T16:06:09.456Z,66.80
2022-11-19T16:08:37.520Z,60.63
2022-11-19T16:11:43.833Z,67.53
2022-11-19T16:14:46.927Z,54.63
2022-11-19T16:17:32.405Z,56.77
2022-11-19T16:20:11.015Z,56.13
2022-11-19T16:22:44.893Z,52.03
2022-11-19T16:25:23.299Z,58.23
2022-11-19T16:27:50.287Z,50.10
2022-11-19T16:30:22.268Z,53.40
2022-11-19T16:32:50.025Z,46.43
2022-11-19T16:35:28.887Z,49.33
2022-11-19T16:37:56.877Z,45.93
2022-11-19T16:40:24.300Z,46.43
2022-11-19T16:42:56.550Z,43.63
2022-11-19T16:45:26.871Z,42.07
2022-11-19T16:47:58.104Z,43.50
2022-11-19T16:50:25.288Z,43.10
2022-11-19T16:52:52.126Z,44.40
2022-11-19T16:55:18.882Z,41.67
2022-11-19T16:57:51.923Z,44.67
2022-11-19T17:00:24.301Z,48.77
2022-11-19T17:02:51.784Z,55.53
2022-11-19T17:05:22.465Z,52.73
2022-11-19T17:07:51.379Z,53.40
2022-11-19T17:10:24.510Z,172.80
2022-11-19T17:13:04.066Z,64.10
2022-11-19T17:15:41.294Z,51.97
2022-11-19T17:18:15.653Z,48.20
2022-11-19T17:20:45.151Z,46.37
2022-11-19T17:23:15.933Z,45.87
2022-11-19T17:25:54.938Z,45.00
2022-11-19T17:28:46.707Z,45.17
2022-11-19T17:31:24.305Z,46.73
2022-11-19T17:33:56.812Z,43.93
2022-11-19T17:36:26.432Z,40.40
2022-11-19T17:38:53.518Z,44.27
2022-11-19T17:41:42.754Z,36.67
2022-11-19T17:44:33.419Z,38.97
2022-11-19T17:47:20.807Z,39.73
2022-11-19T17:49:49.288Z,43.00
2022-11-19T17:52:29.218Z,45.17
2022-11-19T17:55:16.949Z,44.57
2022-11-19T17:57:43.802Z,39.57
2022-11-19T18:00:11.187Z,40.90
2022-11-19T18:02:38.025Z,40.10
2022-11-19T18:05:15.174Z,40.23
2022-11-19T18:07:42.069Z,40.33
2022-11-19T18:10:09.987Z,39.00
2022-11-19T18:12:36.781Z,38.47
2022-11-19T18:15:04.905Z,36.97
2022-11-19T18:17:31.793Z,33.43
2022-11-19T18:19:58.637Z,31.57
2022-11-19T18:22:25.547Z,28.03
2022-11-19T18:24:52.682Z,27.93
2022-11-19T18:27:19.634Z,29.53
2022-11-19T18:29:46.513Z,26.53
2022-11-19T18:32:16.713Z,28.30
2022-11-19T18:34:44.490Z,35.13
2022-11-19T18:37:11.642Z,33.40
2022-11-19T18:39:38.531Z,30.33
2022-11-19T18:42:05.438Z,28.30
2022-11-19T18:44:35.257Z,28.77
2022-11-19T18:47:04.357Z,28.27
2022-11-19T18:49:33.502Z,24.40
2022-11-19T18:52:00.993Z,23.70
2022-11-19T18:54:28.045Z,27.70
2022-11-19T18:56:55.339Z,31.47
2022-11-19T18:59:22.914Z,31.13
2022-11-19T19:01:52.165Z,28.50
2022-11-19T19:04:19.386Z,28.97
2022-11-19T19:06:46.353Z,75.13
2022-11-19T19:09:19.546Z,30.57
2022-11-19T19:12:12.649Z,91.33
2022-11-19T19:14:40.278Z,28.37
2022-11-19T19:17:07.072Z,27.80
2022-11-19T19:19:33.947Z,28.27
2022-11-19T19:22:00.919Z,27.37
2022-11-19T19:24:27.731Z,26.90
2022-11-19T19:26:54.573Z,25.07
2022-11-19T19:29:22.199Z,24.53
2022-11-19T19:31:49.225Z,22.77
2022-11-19T19:34:16.896Z,23.23
2022-11-19T19:36:47.641Z,24.57
2022-11-19T19:39:17.158Z,24.73
2022-11-19T19:41:44.144Z,24.20
2022-11-19T19:44:11.191Z,23.47
2022-11-19T19:46:38.077Z,27.67
2022-11-19T19:49:05.022Z,25.93
2022-11-19T19:51:32.911Z,26.27
2022-11-19T19:54:00.595Z,31.00
2022-11-19T19:56:29.451Z,43.77
2022-11-19T19:58:57.465Z,29.47
2022-11-19T20:01:26.685Z,27.53
2022-11-19T20:03:55.003Z,26.90
2022-11-19T20:06:23.619Z,25.73
2022-11-19T20:08:50.803Z,26.17
2022-11-19T20:11:26.614Z,27.50
2022-11-19T20:13:55.143Z,31.93
2022-11-19T20:16:24.348Z,27.90
2022-11-19T20:18:52.531Z,31.30
2022-11-19T20:21:28.536Z,32.10
2022-11-19T20:23:55.838Z,29.50
2022-11-19T20:26:25.364Z,31.83
2022-11-19T20:29:02.988Z,29.90
2022-11-19T20:31:31.322Z,31.30
2022-11-19T20:34:00.634Z,28.53
2022-11-19T20:36:29.655Z,30.17
2022-11-19T20:38:59.637Z,31.83
2022-11-19T20:41:46.488Z,28.70
2022-11-19T20:44:21.145Z,29.80
2022-11-19T20:46:51.337Z,33.20
2022-11-19T20:49:20.034Z,30.93
2022-11-19T20:51:47.078Z,29.10
2022-11-19T20:54:14.385Z,30.37
2022-11-19T20:56:42.278Z,31.77
2022-11-19T20:59:09.603Z,31.40
2022-11-19T21:01:37.253Z,29.03
2022-11-19T21:04:04.592Z,32.80
2022-11-19T21:06:31.937Z,33.07
2022-11-19T21:08:58.850Z,33.47
2022-11-19T21:11:25.729Z,32.67
2022-11-19T21:13:52.756Z,33.70
2022-11-19T21:16:22.503Z,33.17
2022-11-19T21:18:49.577Z,32.90
2022-11-19T21:21:18.561Z,33.00
2022-11-19T21:23:45.649Z,31.70
2022-11-19T21:26:24.464Z,31.63
2022-11-19T21:28:53.745Z,33.23
2022-11-19T21:31:23.523Z,37.43
2022-11-19T21:33:50.314Z,28.57
2022-11-19T21:36:17.299Z,57.97
2022-11-19T21:38:44.133Z,29.43
2022-11-19T21:41:10.877Z,29.43
2022-11-19T21:43:37.679Z,30.07
2022-11-19T21:46:07.790Z,31.73
2022-11-19T21:48:37.360Z,33.90
2022-11-19T21:51:08.246Z,35.03
2022-11-19T21:53:35.818Z,35.73
2022-11-19T21:56:03.910Z,36.80
2022-11-19T21:58:31.219Z,38.00
2022-11-19T22:01:04.358Z,33.40
2022-11-19T22:03:34.308Z,40.57
2022-11-19T22:06:03.452Z,36.20
2022-11-19T22:08:40.773Z,32.47
2022-11-19T22:11:27.960Z,35.37
2022-11-19T22:13:59.525Z,38.20
2022-11-19T22:16:27.074Z,34.27
2022-11-19T22:18:53.995Z,33.80
2022-11-19T22:21:20.898Z,35.93
2022-11-19T22:23:47.752Z,35.57
2022-11-19T22:26:15.529Z,35.37
2022-11-19T22:28:42.452Z,34.07
2022-11-19T22:31:09.414Z,31.33
2022-11-19T22:33:38.708Z,32.63
2022-11-19T22:36:10.088Z,31.03
2022-11-19T22:38:38.523Z,35.03
2022-11-19T22:41:10.575Z,27.73
2022-11-19T22:43:38.464Z,30.07
2022-11-19T22:46:06.388Z,28.83
2022-11-19T22:48:33.878Z,28.80
2022-11-19T22:51:25.196Z,38.37
2022-11-19T22:53:53.436Z,45.83
2022-11-19T22:56:23.751Z,79.83
2022-11-19T22:58:51.362Z,27.37
2022-11-19T23:01:25.995Z,46.93
2022-11-19T23:03:53.920Z,28.17
2022-11-19T23:06:21.589Z,29.10
2022-11-19T23:08:48.740Z,27.60
2022-11-19T23:11:41.464Z,26.73
2022-11-19T23:14:16.121Z,28.27
2022-11-19T23:16:43.309Z,29.60
2022-11-19T23:19:11.955Z,27.37
2022-11-19T23:21:40.117Z,29.37
2022-11-19T23:24:07.352Z,30.67
2022-11-19T23:26:34.795Z,29.73
2022-11-19T23:29:02.056Z,81.60
2022-11-19T23:31:31.146Z,59.73
2022-11-19T23:33:59.485Z,26.90
2022-11-19T23:36:29.284Z,27.43
2022-11-19T23:38:56.323Z,35.70
2022-11-19T23:41:23.469Z,29.73
2022-11-19T23:43:52.543Z,26.83
2022-11-19T23:46:24.303Z,29.23
2022-11-19T23:48:52.239Z,28.20
2022-11-19T23:51:21.755Z,29.37
2022-11-19T23:53:49.010Z,27.03
2022-11-19T23:56:17.297Z,36.47
2022-11-19T23:58:44.249Z,25.17
